Bethany, Illinois
Current Conditions -  °F | °C
As of 6:54 PM on Wednesday 17 Dec 2014 (Local Time) from KDEC Reporting Station
Overcast Overcast  
Wind Chill: 17°   Ceiling: 1300
Heat Index: 24°   Visibility: 10mi
Dew Point: 19°   Wind: 6mph
Humidity: 81%   Direction: 300°WNW
Pressure: 30.31"   Gusts: NA
Location:  39.65°N, 88.74°W
Report Text: KDEC 180054Z 30005KT 10SM OVC013 M04/M07 A3031 RMK AO2 SLP274 T10441072
Loading
Personal Weather Stations






























Interactive Weather Map New forecast layout! Learn more

10-Day Weather Forecast

Advertisements
Track Severe Weather on mobile